Time;durP1;ratioP1;P1;durP2;ratioP2;P2;SDS_P1;SDS_P2;PMS_P1;PMS_P2;Temp;Humidity;BMP_temperature;BMP_pressure;BME280_temperature;BME280_humidity;BME280_pressure;Samples;Min_cycle;Max_cycle;Signal;HPM_P1;HPM_P2
2022/03/18 00:00:55;;;;;;;;;;;;;;;;;;5069385;28;1216;-80
2022/03/18 00:03:20;;;;;;;;;;;;;;;;;;5045512;28;1305;-80
2022/03/18 00:05:46;;;;;;;;;;;;;;;;;;5065305;28;1336;-80
2022/03/18 00:08:11;;;;;;;;;;;;;;;;;;5061827;28;1196;-80
2022/03/18 00:10:37;;;;;;;;;;;;;;;;;;5063746;28;1897;-80
2022/03/18 00:13:03;;;;;;;;;;;;;;;;;;5041573;28;1322;-80
2022/03/18 00:15:29;;;;;;;;;;;;;;;;;;5061529;28;1406;-80
2022/03/18 00:17:55;;;;;;;;;;;;;;;;;;5070748;28;1254;-79
2022/03/18 00:20:22;;;;;;;;;;;;;;;;;;5064343;28;1517;-80
2022/03/18 00:22:48;;;;;;;;;;;;;;;;;;5089270;28;1216;-79
2022/03/18 00:25:14;;;;;;;;;;;;;;;;;;5083044;28;1171;-80
2022/03/18 00:27:42;;;;;;;;;;;;;;;;;;5064209;28;1250;-80
2022/03/18 00:30:09;;;;;;;;;;;;;;;;;;5061208;28;1971;-78
2022/03/18 00:32:36;;;;;;;;;;;;;;;;;;5066006;28;1346;-79
2022/03/18 00:35:02;;;;;;;;;;;;;;;;;;5065886;28;1275;-80
2022/03/18 00:37:27;;;;;;;;;;;;;;;;;;5046045;28;1262;-80
2022/03/18 00:39:52;;;;;;;;;;;;;;;;;;5085590;28;1231;-79
2022/03/18 00:42:18;;;;;;;;;;;;;;;;;;5085402;28;1294;-79
2022/03/18 00:44:43;;;;;;;;;;;;;;;;;;5062733;28;1887;-80
2022/03/18 00:52:03;;;;;;;;;;;;;;;;;;5068504;28;1301;-78
2022/03/18 00:52:39;;;;;;;;;;;;;;;;;;5102463;28;992;-79
2022/03/18 00:55:09;;;;;;;;;;;;;;;;;;5068539;28;1364;-80
2022/03/18 00:57:35;;;;;;;;;;;;;;;;;;5080589;28;1304;-80
2022/03/18 01:00:00;;;;;;;;;;;;;;;;;;5101966;28;1338;-79
2022/03/18 01:02:26;;;;;;;;;;;;;;;;;;5075758;28;1206;-79
2022/03/18 01:04:52;;;;;;;;;;;;;;;;;;5085257;28;1199;-79
2022/03/18 01:07:17;;;;;;;;;;;;;;;;;;5067122;28;1324;-79
2022/03/18 01:09:43;;;;;;;;;;;;;;;;;;5095279;28;1918;-79
2022/03/18 01:12:09;;;;;;;;;;;;;;;;;;5049693;28;1195;-78
2022/03/18 01:14:35;;;;;;;;;;;;;;;;;;5061107;28;1124;-79
2022/03/18 01:17:00;;;;;;;;;;;;;;;;;;5103161;28;1167;-79
2022/03/18 01:19:25;;;;;;;;;;;;;;;;;;5059576;28;1255;-80
2022/03/18 01:21:51;;;;;;;;;;;;;;;;;;5063069;28;1194;-79
2022/03/18 01:24:16;;;;;;;;;;;;;;;;;;5074788;28;1156;-78
2022/03/18 01:26:41;;;;;;;;;;;;;;;;;;5065940;28;1216;-79
2022/03/18 01:29:10;;;;;;;;;;;;;;;;;;5072273;28;1381;-80
2022/03/18 01:31:36;;;;;;;;;;;;;;;;;;5062031;28;1927;-78
2022/03/18 01:34:01;;;;;;;;;;;;;;;;;;5079645;28;1265;-78
2022/03/18 01:36:29;;;;;;;;;;;;;;;;;;5058568;28;1273;-79
2022/03/18 01:38:55;;;;;;;;;;;;;;;;;;5061922;28;1144;-79
2022/03/18 01:41:23;;;;;;;;;;;;;;;;;;5086302;28;1155;-79
2022/03/18 01:43:48;;;;;;;;;;;;;;;;;;5059219;28;1152;-79
2022/03/18 01:46:16;;;;;;;;;;;;;;;;;;5061528;28;1440;-79
2022/03/18 01:48:41;;;;;;;;;;;;;;;;;;5065201;28;1242;-79
2022/03/18 01:51:07;;;;;;;;;;;;;;;;;;5072792;28;1884;-79
2022/03/18 01:53:33;;;;;;;;;;;;;;;;;;5063397;28;1028;-79
2022/03/18 01:55:59;;;;;;;;;;;;;;;;;;5078864;28;1178;-79
2022/03/18 01:58:24;;;;;;;;;;;;;;;;;;5062109;28;1284;-79
2022/03/18 02:00:50;;;;;;;;;;;;;;;;;;5051820;28;1168;-78
2022/03/18 02:03:17;;;;;;;;;;;;;;;;;;5062218;28;1195;-78
2022/03/18 02:05:43;;;;;;;;;;;;;;;;;;5071133;28;1356;-79
2022/03/18 02:08:09;;;;;;;;;;;;;;;;;;5083364;28;1301;-79
2022/03/18 02:10:34;;;;;;;;;;;;;;;;;;5088290;28;1882;-80
2022/03/18 02:13:03;;;;;;;;;;;;;;;;;;5046894;28;1262;-79
2022/03/18 02:15:28;;;;;;;;;;;;;;;;;;5070402;28;1281;-79
2022/03/18 02:17:54;;;;;;;;;;;;;;;;;;5065817;28;1236;-79
2022/03/18 02:20:20;;;;;;;;;;;;;;;;;;5042953;28;1472;-79
2022/03/18 02:22:46;;;;;;;;;;;;;;;;;;5071265;28;1227;-79
2022/03/18 02:25:13;;;;;;;;;;;;;;;;;;5054981;28;1187;-80
2022/03/18 02:27:40;;;;;;;;;;;;;;;;;;5062714;28;1405;-79
2022/03/18 02:30:06;;;;;;;;;;;;;;;;;;5079684;28;1970;-78
2022/03/18 02:32:31;;;;;;;;;;;;;;;;;;5048714;28;1291;-79
2022/03/18 02:34:57;;;;;;;;;;;;;;;;;;5065287;28;1183;-79
2022/03/18 02:37:22;;;;;;;;;;;;;;;;;;5063098;28;1314;-78
2022/03/18 02:39:47;;;;;;;;;;;;;;;;;;5047721;28;1271;-78
2022/03/18 02:42:13;;;;;;;;;;;;;;;;;;5067968;28;1345;-78
2022/03/18 02:44:38;;;;;;;;;;;;;;;;;;5082695;28;1064;-79
2022/03/18 02:47:03;;;;;;;;;;;;;;;;;;5085183;28;1329;-79
2022/03/18 02:49:29;;;;;;;;;;;;;;;;;;5062602;28;1297;-79
2022/03/18 02:51:54;;;;;;;;;;;;;;;;;;5058595;28;1898;-79
2022/03/18 02:54:20;;;;;;;;;;;;;;;;;;5081946;28;1407;-79
2022/03/18 02:56:47;;;;;;;;;;;;;;;;;;5069611;28;1223;-79
2022/03/18 02:59:13;;;;;;;;;;;;;;;;;;5063933;28;1320;-80
2022/03/18 03:01:39;;;;;;;;;;;;;;;;;;5064983;28;1379;-77
2022/03/18 03:04:05;;;;;;;;;;;;;;;;;;5085657;28;1213;-79
2022/03/18 03:09:16;;;;;;;;;;;;;;;;;;5076342;28;1036;-78
2022/03/18 03:11:42;;;;;;;;;;;;;;;;;;5082629;28;1951;-79
2022/03/18 03:14:11;;;;;;;;;;;;;;;;;;5066024;28;1234;-78
2022/03/18 03:16:37;;;;;;;;;;;;;;;;;;5061755;28;1140;-79
2022/03/18 03:19:03;;;;;;;;;;;;;;;;;;5063175;28;1319;-79
2022/03/18 03:21:29;;;;;;;;;;;;;;;;;;5053108;28;1418;-78
2022/03/18 03:23:55;;;;;;;;;;;;;;;;;;5082682;28;1299;-79
2022/03/18 03:26:24;;;;;;;;;;;;;;;;;;5064389;28;1461;-78
2022/03/18 03:28:50;;;;;;;;;;;;;;;;;;5079626;28;1262;-79
2022/03/18 03:31:15;;;;;;;;;;;;;;;;;;5070898;28;1976;-78
2022/03/18 03:33:40;;;;;;;;;;;;;;;;;;5064284;28;1124;-79
2022/03/18 03:36:06;;;;;;;;;;;;;;;;;;5082918;28;1273;-79
2022/03/18 03:38:32;;;;;;;;;;;;;;;;;;5085952;28;1215;-79
2022/03/18 03:40:57;;;;;;;;;;;;;;;;;;5089519;28;1175;-79
2022/03/18 03:43:26;;;;;;;;;;;;;;;;;;5056410;28;1596;-79
2022/03/18 03:45:51;;;;;;;;;;;;;;;;;;5086298;28;1211;-78
2022/03/18 03:48:16;;;;;;;;;;;;;;;;;;5067346;28;1344;-77
2022/03/18 03:50:41;;;;;;;;;;;;;;;;;;5074696;28;1890;-79
2022/03/18 03:53:07;;;;;;;;;;;;;;;;;;5066326;28;1049;-81
2022/03/18 03:55:34;;;;;;;;;;;;;;;;;;5102307;28;1131;-78
2022/03/18 03:58:02;;;;;;;;;;;;;;;;;;5099655;28;1167;-80
2022/03/18 04:00:27;;;;;;;;;;;;;;;;;;5078381;28;1290;-78
2022/03/18 04:02:55;;;;;;;;;;;;;;;;;;5058387;28;1152;-79
2022/03/18 04:05:22;;;;;;;;;;;;;;;;;;5086579;28;1222;-78
2022/03/18 04:07:47;;;;;;;;;;;;;;;;;;5066062;28;1200;-79
2022/03/18 04:10:16;;;;;;;;;;;;;;;;;;5085478;28;1969;-79
2022/03/18 04:12:42;;;;;;;;;;;;;;;;;;5082381;28;1057;-79
2022/03/18 04:15:09;;;;;;;;;;;;;;;;;;5096899;28;1039;-79
2022/03/18 04:17:37;;;;;;;;;;;;;;;;;;5082771;28;1202;-77
2022/03/18 04:20:05;;;;;;;;;;;;;;;;;;5086612;28;1184;-79
2022/03/18 04:22:30;;;;;;;;;;;;;;;;;;5050832;28;1515;-77
2022/03/18 04:24:55;;;;;;;;;;;;;;;;;;5061996;28;1683;-78
2022/03/18 04:27:21;;;;;;;;;;;;;;;;;;5064387;28;1160;-78
2022/03/18 04:29:46;;;;;;;;;;;;;;;;;;5041168;28;1968;-78
2022/03/18 04:32:11;;;;;;;;;;;;;;;;;;5081941;28;1140;-79
2022/03/18 04:34:37;;;;;;;;;;;;;;;;;;5046295;28;1271;-79
2022/03/18 04:37:03;;;;;;;;;;;;;;;;;;5063721;28;1227;-78
2022/03/18 04:39:28;;;;;;;;;;;;;;;;;;5083924;28;1191;-78
2022/03/18 04:41:53;;;;;;;;;;;;;;;;;;5068947;28;1266;-77
2022/03/18 04:44:19;;;;;;;;;;;;;;;;;;5069984;28;1207;-78
2022/03/18 04:46:48;;;;;;;;;;;;;;;;;;5072002;28;1025;-79
2022/03/18 04:49:13;;;;;;;;;;;;;;;;;;5083263;28;1307;-79
2022/03/18 04:51:38;;;;;;;;;;;;;;;;;;5073709;28;1962;-78
2022/03/18 04:54:03;;;;;;;;;;;;;;;;;;5053795;28;1333;-78
2022/03/18 04:59:14;;;;;;;;;;;;;;;;;;5068842;28;1016;-78
2022/03/18 05:01:40;;;;;;;;;;;;;;;;;;5047611;28;1272;-79
2022/03/18 05:04:06;;;;;;;;;;;;;;;;;;5065417;28;1328;-78
2022/03/18 05:06:33;;;;;;;;;;;;;;;;;;5063330;28;1278;-78
2022/03/18 05:08:59;;;;;;;;;;;;;;;;;;5081752;28;1155;-78
2022/03/18 05:11:24;;;;;;;;;;;;;;;;;;5083393;28;1957;-78
2022/03/18 05:13:49;;;;;;;;;;;;;;;;;;5061412;28;1370;-78
2022/03/18 05:16:15;;;;;;;;;;;;;;;;;;5068118;28;1386;-79
2022/03/18 05:18:40;;;;;;;;;;;;;;;;;;5059632;28;1119;-78
2022/03/18 05:21:06;;;;;;;;;;;;;;;;;;5063282;28;1302;-80
2022/03/18 05:23:35;;;;;;;;;;;;;;;;;;5079967;28;1207;-77
2022/03/18 05:26:00;;;;;;;;;;;;;;;;;;5081961;28;1287;-78
2022/03/18 05:28:26;;;;;;;;;;;;;;;;;;5064475;28;1212;-79
2022/03/18 05:30:52;;;;;;;;;;;;;;;;;;5042935;28;1914;-79
2022/03/18 05:33:19;;;;;;;;;;;;;;;;;;5062109;28;1176;-78
2022/03/18 05:35:44;;;;;;;;;;;;;;;;;;5053868;28;1290;-78
2022/03/18 05:38:10;;;;;;;;;;;;;;;;;;5081624;28;1399;-78
2022/03/18 05:40:35;;;;;;;;;;;;;;;;;;5080149;28;1127;-78
2022/03/18 05:43:03;;;;;;;;;;;;;;;;;;5067747;28;1219;-77
2022/03/18 05:45:32;;;;;;;;;;;;;;;;;;5064018;28;1238;-78
2022/03/18 05:47:57;;;;;;;;;;;;;;;;;;5080126;28;1314;-78
2022/03/18 05:50:23;;;;;;;;;;;;;;;;;;5065517;28;1944;-78
2022/03/18 05:52:49;;;;;;;;;;;;;;;;;;5067964;28;1132;-78
2022/03/18 05:55:14;;;;;;;;;;;;;;;;;;5046346;28;1412;-78
2022/03/18 05:57:39;;;;;;;;;;;;;;;;;;5060060;28;1140;-78
2022/03/18 06:00:05;;;;;;;;;;;;;;;;;;5042041;28;1243;-79
2022/03/18 06:02:34;;;;;;;;;;;;;;;;;;5077112;28;1220;-78
2022/03/18 06:05:00;;;;;;;;;;;;;;;;;;5077468;28;1068;-79
2022/03/18 06:07:29;;;;;;;;;;;;;;;;;;5061607;28;1176;-78
2022/03/18 06:12:38;;;;;;;;;;;;;;;;;;5060885;28;1020;-79
2022/03/18 06:15:04;;;;;;;;;;;;;;;;;;5069226;28;1128;-79
2022/03/18 06:17:29;;;;;;;;;;;;;;;;;;5072018;28;1152;-79
2022/03/18 06:19:54;;;;;;;;;;;;;;;;;;5079344;28;1321;-79
2022/03/18 06:22:20;;;;;;;;;;;;;;;;;;5062567;28;1336;-79
2022/03/18 06:24:45;;;;;;;;;;;;;;;;;;5062569;28;1187;-79
2022/03/18 06:27:11;;;;;;;;;;;;;;;;;;5084697;28;1321;-79
2022/03/18 06:29:43;;;;;;;;;;;;;;;;;;5064131;28;1140;-78
2022/03/18 06:32:09;;;;;;;;;;;;;;;;;;5064755;28;1365;-79
2022/03/18 06:34:38;;;;;;;;;;;;;;;;;;5073364;28;1195;-80
2022/03/18 06:37:03;;;;;;;;;;;;;;;;;;5064698;28;1160;-78
2022/03/18 06:39:29;;;;;;;;;;;;;;;;;;5073632;28;1171;-79
2022/03/18 06:41:54;;;;;;;;;;;;;;;;;;5066320;28;1186;-79
2022/03/18 06:44:20;;;;;;;;;;;;;;;;;;5044346;28;1204;-79
2022/03/18 06:46:46;;;;;;;;;;;;;;;;;;5042937;28;1455;-78
2022/03/18 06:49:13;;;;;;;;;;;;;;;;;;5046248;28;1256;-78
2022/03/18 06:51:38;;;;;;;;;;;;;;;;;;5062812;28;1890;-79
2022/03/18 06:54:04;;;;;;;;;;;;;;;;;;5062513;28;1396;-79
2022/03/18 06:56:30;;;;;;;;;;;;;;;;;;5069326;28;1218;-79
2022/03/18 06:58:55;;;;;;;;;;;;;;;;;;5067864;28;1227;-78
2022/03/18 07:01:21;;;;;;;;;;;;;;;;;;5066745;28;1168;-78
2022/03/18 07:03:47;;;;;;;;;;;;;;;;;;5067564;28;1076;-78
2022/03/18 07:06:12;;;;;;;;;;;;;;;;;;5070204;28;1167;-79
2022/03/18 07:08:41;;;;;;;;;;;;;;;;;;5081157;28;1210;-80
2022/03/18 07:11:07;;;;;;;;;;;;;;;;;;5088614;28;1890;-80
2022/03/18 07:13:33;;;;;;;;;;;;;;;;;;5081663;28;1362;-81
2022/03/18 07:17:54;;;;;;;;;;;;;;;;;;5056365;28;1309;-80
2022/03/18 07:18:43;;;;;;;;;;;;;;;;;;5078400;28;1052;-80
2022/03/18 07:21:09;;;;;;;;;;;;;;;;;;5069678;28;1354;-80
2022/03/18 07:23:34;;;;;;;;;;;;;;;;;;5086794;28;1215;-81
2022/03/18 07:25:59;;;;;;;;;;;;;;;;;;5085592;28;1164;-81
2022/03/18 07:28:24;;;;;;;;;;;;;;;;;;5094818;28;1152;-79
2022/03/18 07:30:50;;;;;;;;;;;;;;;;;;5051054;28;1957;-77
2022/03/18 07:33:15;;;;;;;;;;;;;;;;;;5053225;28;1290;-75
2022/03/18 07:35:50;;;;;;;;;;;;;;;;;;5070644;28;1286;-79
2022/03/18 07:38:15;;;;;;;;;;;;;;;;;;5088511;28;1291;-78
2022/03/18 07:40:45;;;;;;;;;;;;;;;;;;5089774;28;1148;-78
2022/03/18 07:43:10;;;;;;;;;;;;;;;;;;5070314;28;1386;-79
2022/03/18 07:45:36;;;;;;;;;;;;;;;;;;5059546;28;1187;-78
2022/03/18 07:48:03;;;;;;;;;;;;;;;;;;5074938;28;1293;-78
2022/03/18 07:50:28;;;;;;;;;;;;;;;;;;5069080;28;1898;-78
2022/03/18 07:52:55;;;;;;;;;;;;;;;;;;5051568;28;1367;-79
2022/03/18 07:55:21;;;;;;;;;;;;;;;;;;5073529;28;1429;-78
2022/03/18 07:57:47;;;;;;;;;;;;;;;;;;5103457;28;1242;-78
2022/03/18 08:00:13;;;;;;;;;;;;;;;;;;5086339;28;1282;-78
2022/03/18 08:02:38;;;;;;;;;;;;;;;;;;5072460;28;1223;-78
2022/03/18 08:05:04;;;;;;;;;;;;;;;;;;5054802;28;1200;-79
2022/03/18 08:07:29;;;;;;;;;;;;;;;;;;5095934;28;1222;-79
2022/03/18 08:09:55;;;;;;;;;;;;;;;;;;5065329;28;1901;-78
2022/03/18 08:12:23;;;;;;;;;;;;;;;;;;5070139;28;1266;-78
2022/03/18 08:14:48;;;;;;;;;;;;;;;;;;5061479;28;1045;-78
2022/03/18 08:17:13;;;;;;;;;;;;;;;;;;5088121;28;1120;-78
2022/03/18 08:19:38;;;;;;;;;;;;;;;;;;5052574;28;1272;-78
2022/03/18 08:22:04;;;;;;;;;;;;;;;;;;5071183;28;1263;-78
2022/03/18 08:24:29;;;;;;;;;;;;;;;;;;5088802;28;1185;-78
2022/03/18 08:26:55;;;;;;;;;;;;;;;;;;5106645;28;1159;-78
2022/03/18 08:29:20;;;;;;;;;;;;;;;;;;5083318;28;1392;-77
2022/03/18 08:31:50;;;;;;;;;;;;;;;;;;5107819;28;1935;-79
2022/03/18 08:34:16;;;;;;;;;;;;;;;;;;5088244;28;1215;-77
2022/03/18 08:36:41;;;;;;;;;;;;;;;;;;5092242;28;1108;-78
2022/03/18 08:39:10;;;;;;;;;;;;;;;;;;5089447;28;1171;-78
2022/03/18 08:41:36;;;;;;;;;;;;;;;;;;5091845;28;1347;-80
2022/03/18 08:44:01;;;;;;;;;;;;;;;;;;5094852;28;1150;-78
2022/03/18 08:46:29;;;;;;;;;;;;;;;;;;5071285;28;1211;-78
2022/03/18 08:48:55;;;;;;;;;;;;;;;;;;5076899;28;1191;-77
2022/03/18 08:51:20;;;;;;;;;;;;;;;;;;5054947;28;1930;-77
2022/03/18 08:53:46;;;;;;;;;;;;;;;;;;5066019;28;1246;-78
2022/03/18 08:56:12;;;;;;;;;;;;;;;;;;5069883;28;1180;-76
2022/03/18 08:58:37;;;;;;;;;;;;;;;;;;5047537;28;1161;-76
2022/03/18 09:01:02;;;;;;;;;;;;;;;;;;5067270;28;1194;-78
2022/03/18 09:03:28;;;;;;;;;;;;;;;;;;5051780;28;1168;-79
2022/03/18 09:05:53;;;;;;;;;;;;;;;;;;5053258;28;1287;-79
2022/03/18 09:08:18;;;;;;;;;;;;;;;;;;5068865;28;1526;-78
2022/03/18 09:10:44;;;;;;;;;;;;;;;;;;5086798;28;1874;-80
2022/03/18 09:13:09;;;;;;;;;;;;;;;;;;5083680;28;1251;-83
2022/03/18 09:15:35;;;;;;;;;;;;;;;;;;5079073;28;1227;-79
2022/03/18 09:18:00;;;;;;;;;;;;;;;;;;5080624;28;1573;-78
2022/03/18 09:20:25;;;;;;;;;;;;;;;;;;5077845;28;1199;-79
2022/03/18 09:22:56;;;;;;;;;;;;;;;;;;5094106;28;1159;-76
2022/03/18 09:25:22;;;;;;;;;;;;;;;;;;5056196;28;1322;-77
2022/03/18 09:27:54;;;;;;;;;;;;;;;;;;5075144;28;1520;-78
2022/03/18 09:30:19;;;;;;;;;;;;;;;;;;5072025;28;1960;-77
2022/03/18 09:32:44;;;;;;;;;;;;;;;;;;5086576;28;1261;-81
2022/03/18 09:35:11;;;;;;;;;;;;;;;;;;5078596;28;1286;-79
2022/03/18 09:37:36;;;;;;;;;;;;;;;;;;5093033;28;1245;-79
2022/03/18 09:40:04;;;;;;;;;;;;;;;;;;5092008;28;1253;-79
2022/03/18 09:42:32;;;;;;;;;;;;;;;;;;5078230;28;1318;-79
2022/03/18 09:44:58;;;;;;;;;;;;;;;;;;5063494;28;1283;-77
2022/03/18 09:47:23;;;;;;;;;;;;;;;;;;5097247;28;1231;-79
2022/03/18 09:49:55;;;;;;;;;;;;;;;;;;5094351;28;1151;-79
2022/03/18 09:52:21;;;;;;;;;;;;;;;;;;5100348;28;1060;-80
2022/03/18 09:54:46;;;;;;;;;;;;;;;;;;5090932;28;1419;-80
2022/03/18 09:57:12;;;;;;;;;;;;;;;;;;5100719;28;1200;-80
2022/03/18 09:59:37;;;;;;;;;;;;;;;;;;5070903;28;1612;-78
2022/03/18 10:02:21;;;;;;;;;;;;;;;;;;5090300;28;1217;-77
2022/03/18 10:04:52;;;;;;;;;;;;;;;;;;5094620;28;1178;-78
2022/03/18 10:07:18;;;;;;;;;;;;;;;;;;5107123;28;1250;-77
2022/03/18 10:09:43;;;;;;;;;;;;;;;;;;5078842;28;1256;-80
2022/03/18 10:12:36;;;;;;;;;;;;;;;;;;5110870;28;1894;-79
2022/03/18 10:15:02;;;;;;;;;;;;;;;;;;5077776;28;1183;-80
2022/03/18 10:17:36;;;;;;;;;;;;;;;;;;5091070;28;1408;-75
2022/03/18 10:20:02;;;;;;;;;;;;;;;;;;5088265;28;1148;-75
2022/03/18 10:22:28;;;;;;;;;;;;;;;;;;5070696;28;1444;-75
2022/03/18 10:25:03;;;;;;;;;;;;;;;;;;5069727;28;1321;-74
2022/03/18 10:27:35;;;;;;;;;;;;;;;;;;5068523;28;1349;-74
2022/03/18 10:30:00;;;;;;;;;;;;;;;;;;5065041;28;1931;-75
2022/03/18 10:32:29;;;;;;;;;;;;;;;;;;5086991;28;1188;-76
2022/03/18 10:37:42;;;;;;;;;;;;;;;;;;5083529;28;1032;-76
2022/03/18 10:40:08;;;;;;;;;;;;;;;;;;5082551;28;1215;-78
2022/03/18 10:42:37;;;;;;;;;;;;;;;;;;5101027;28;1139;-73
2022/03/18 10:45:03;;;;;;;;;;;;;;;;;;5063362;28;1236;-75
2022/03/18 10:47:38;;;;;;;;;;;;;;;;;;5066586;28;1207;-76
2022/03/18 10:50:29;;;;;;;;;;;;;;;;;;5067674;28;1917;-75
2022/03/18 10:53:02;;;;;;;;;;;;;;;;;;5064078;28;1289;-75
2022/03/18 10:55:29;;;;;;;;;;;;;;;;;;5064587;28;1191;-74
2022/03/18 10:58:01;;;;;;;;;;;;;;;;;;5086630;28;1235;-75
2022/03/18 11:00:31;;;;;;;;;;;;;;;;;;5064700;28;1180;-75
2022/03/18 11:02:59;;;;;;;;;;;;;;;;;;5088151;28;1157;-75
2022/03/18 11:05:34;;;;;;;;;;;;;;;;;;5070752;28;1241;-75
2022/03/18 11:08:01;;;;;;;;;;;;;;;;;;5094663;28;1136;-74
2022/03/18 11:13:12;;;;;;;;;;;;;;;;;;5094547;28;1032;-77
2022/03/18 11:15:41;;;;;;;;;;;;;;;;;;5083480;28;1344;-74
2022/03/18 11:18:11;;;;;;;;;;;;;;;;;;5081555;28;1513;-74
2022/03/18 11:20:42;;;;;;;;;;;;;;;;;;5103767;28;1128;-75
2022/03/18 11:23:12;;;;;;;;;;;;;;;;;;5051906;28;1195349;-76
2022/03/18 11:25:40;;;;;;;;;;;;;;;;;;5064949;28;1325;-76
2022/03/18 11:28:05;;;;;;;;;;;;;;;;;;5081648;28;1041;-76
2022/03/18 11:30:37;;;;;;;;;;;;;;;;;;5065200;28;1948;-74
2022/03/18 11:33:06;;;;;;;;;;;;;;;;;;5080780;28;1136;-75
2022/03/18 11:35:50;;;;;;;;;;;;;;;;;;5085154;28;1112;-76
2022/03/18 11:38:22;;;;;;;;;;;;;;;;;;5071062;28;1198;-76
2022/03/18 11:41:03;;;;;;;;;;;;;;;;;;5086864;28;1307;-76
2022/03/18 11:43:35;;;;;;;;;;;;;;;;;;5101106;28;1195;-77
2022/03/18 11:46:13;;;;;;;;;;;;;;;;;;5065626;28;1200;-76
2022/03/18 11:49:17;;;;;;;;;;;;;;;;;;5065492;28;1294;-75
2022/03/18 11:51:47;;;;;;;;;;;;;;;;;;5025721;28;1967;-77
2022/03/18 11:54:16;;;;;;;;;;;;;;;;;;4994455;28;1492;-76
2022/03/18 11:56:45;;;;;;;;;;;;;;;;;;5059138;28;1126;-76
2022/03/18 11:59:25;;;;;;;;;;;;;;;;;;5068937;28;1381;-76
2022/03/18 12:01:52;;;;;;;;;;;;;;;;;;5092574;28;1274;-75
2022/03/18 12:04:32;;;;;;;;;;;;;;;;;;5074023;28;1206;-76
2022/03/18 12:07:18;;;;;;;;;;;;;;;;;;5090632;28;1306;-76
2022/03/18 12:10:02;;;;;;;;;;;;;;;;;;5088747;28;1487;-77
2022/03/18 12:12:31;;;;;;;;;;;;;;;;;;5097862;28;1128;-76
2022/03/18 12:15:00;;;;;;;;;;;;;;;;;;5096498;28;1311;-76
2022/03/18 12:17:26;;;;;;;;;;;;;;;;;;5093261;28;1198;-76
2022/03/18 12:19:56;;;;;;;;;;;;;;;;;;5071123;28;1247;-75
2022/03/18 12:22:22;;;;;;;;;;;;;;;;;;5082313;28;1303;-75
2022/03/18 12:24:48;;;;;;;;;;;;;;;;;;5084432;28;1310;-75
2022/03/18 12:27:15;;;;;;;;;;;;;;;;;;5064146;28;1260;-75
2022/03/18 12:29:41;;;;;;;;;;;;;;;;;;5058676;28;1275;-76
2022/03/18 12:32:10;;;;;;;;;;;;;;;;;;5063955;28;2005;-75
2022/03/18 12:34:45;;;;;;;;;;;;;;;;;;5075961;28;1214;-76
2022/03/18 12:37:22;;;;;;;;;;;;;;;;;;5072879;28;1076;-76
2022/03/18 12:39:59;;;;;;;;;;;;;;;;;;5071893;28;1186;-75
2022/03/18 12:42:28;;;;;;;;;;;;;;;;;;5080003;28;1105;-75
2022/03/18 12:44:59;;;;;;;;;;;;;;;;;;5063754;28;1281;-75
2022/03/18 12:47:30;;;;;;;;;;;;;;;;;;5082146;28;1040;-77
2022/03/18 12:49:55;;;;;;;;;;;;;;;;;;5070575;28;1159;-77
2022/03/18 12:52:21;;;;;;;;;;;;;;;;;;5060950;28;2304;-76
2022/03/18 12:55:06;;;;;;;;;;;;;;;;;;5061834;28;1369;-76
2022/03/18 12:57:39;;;;;;;;;;;;;;;;;;5061173;28;1148;-76
2022/03/18 13:00:08;;;;;;;;;;;;;;;;;;5059380;28;1143;-76
2022/03/18 13:02:37;;;;;;;;;;;;;;;;;;5063092;28;1013;-76
2022/03/18 13:05:06;;;;;;;;;;;;;;;;;;5068797;28;1289;-76
2022/03/18 13:07:32;;;;;;;;;;;;;;;;;;5082451;28;1120;-74
2022/03/18 13:09:57;;;;;;;;;;;;;;;;;;5065005;28;1235;-74
2022/03/18 13:12:27;;;;;;;;;;;;;;;;;;5083713;28;1951;-76
2022/03/18 13:14:56;;;;;;;;;;;;;;;;;;5079016;28;1247;-75
2022/03/18 13:17:27;;;;;;;;;;;;;;;;;;5081220;28;1306;-75
2022/03/18 13:19:55;;;;;;;;;;;;;;;;;;5084080;28;1311;-74
2022/03/18 13:22:21;;;;;;;;;;;;;;;;;;5081662;28;1348;-74
2022/03/18 13:24:51;;;;;;;;;;;;;;;;;;5080906;28;1219;-76
2022/03/18 13:27:18;;;;;;;;;;;;;;;;;;5075068;28;1164;-75
2022/03/18 13:35:11;;;;;;;;;;;;;;;;;;5081297;28;1039;-77
2022/03/18 13:37:37;;;;;;;;;;;;;;;;;;5109590;28;1273;-75
2022/03/18 13:40:14;;;;;;;;;;;;;;;;;;5101315;28;1171;-75
2022/03/18 13:42:41;;;;;;;;;;;;;;;;;;5097273;28;1148;-76
2022/03/18 13:45:21;;;;;;;;;;;;;;;;;;5087697;28;1460;-76
2022/03/18 13:47:47;;;;;;;;;;;;;;;;;;5085311;28;1223;-76
2022/03/18 13:50:16;;;;;;;;;;;;;;;;;;5084416;28;1975;-76
2022/03/18 13:52:41;;;;;;;;;;;;;;;;;;5090107;28;1201;-74
2022/03/18 13:55:12;;;;;;;;;;;;;;;;;;5085420;28;1301;-75
2022/03/18 13:57:47;;;;;;;;;;;;;;;;;;5063983;28;1323;-76
2022/03/18 14:00:24;;;;;;;;;;;;;;;;;;5086733;28;1061;-75
2022/03/18 14:02:58;;;;;;;;;;;;;;;;;;5098234;28;1353;-75
2022/03/18 14:05:23;;;;;;;;;;;;;;;;;;5075161;28;1209;-75
2022/03/18 14:07:49;;;;;;;;;;;;;;;;;;5063507;28;1188;-74
2022/03/18 14:10:16;;;;;;;;;;;;;;;;;;5061667;28;1886;-83
2022/03/18 14:13:04;;;;;;;;;;;;;;;;;;5062390;28;1145;-76
2022/03/18 14:15:30;;;;;;;;;;;;;;;;;;5072650;28;1115;-83
2022/03/18 14:17:56;;;;;;;;;;;;;;;;;;5086835;28;1405;-80
2022/03/18 14:20:22;;;;;;;;;;;;;;;;;;5076970;28;1170;-77
2022/03/18 14:22:52;;;;;;;;;;;;;;;;;;5049671;28;1437;-82
2022/03/18 14:25:20;;;;;;;;;;;;;;;;;;5081307;28;1329;-78
2022/03/18 14:27:47;;;;;;;;;;;;;;;;;;5075090;28;1204;-81
2022/03/18 14:30:17;;;;;;;;;;;;;;;;;;5053432;28;1922;-78
2022/03/18 14:32:43;;;;;;;;;;;;;;;;;;5064154;28;1186;-80
2022/03/18 14:35:09;;;;;;;;;;;;;;;;;;5065030;28;1506;-82
2022/03/18 14:37:35;;;;;;;;;;;;;;;;;;5067938;28;1229;-80
2022/03/18 14:40:04;;;;;;;;;;;;;;;;;;5079253;28;1266;-85
2022/03/18 14:42:37;;;;;;;;;;;;;;;;;;5062190;28;1355;-83
2022/03/18 14:45:03;;;;;;;;;;;;;;;;;;5081291;28;1227;-85
2022/03/18 14:47:28;;;;;;;;;;;;;;;;;;5066601;28;1209;-85
2022/03/18 14:49:53;;;;;;;;;;;;;;;;;;5083362;28;1385;-74
2022/03/18 14:52:19;;;;;;;;;;;;;;;;;;5079535;28;1898;-73
2022/03/18 14:57:33;;;;;;;;;;;;;;;;;;5080919;28;1000;-75
2022/03/18 14:59:58;;;;;;;;;;;;;;;;;;5061608;28;1261;-74
2022/03/18 15:02:24;;;;;;;;;;;;;;;;;;5067184;28;1164;-74
2022/03/18 15:04:51;;;;;;;;;;;;;;;;;;5060869;28;1347;-75
2022/03/18 15:07:17;;;;;;;;;;;;;;;;;;5061530;28;1235;-74
2022/03/18 15:09:42;;;;;;;;;;;;;;;;;;5060672;28;1273;-75
2022/03/18 15:12:07;;;;;;;;;;;;;;;;;;5064169;28;1886;-74
2022/03/18 15:14:33;;;;;;;;;;;;;;;;;;5053251;28;1064;-74
2022/03/18 15:16:59;;;;;;;;;;;;;;;;;;5063234;28;1184;-76
2022/03/18 15:19:25;;;;;;;;;;;;;;;;;;5059333;28;1065;-76
2022/03/18 15:21:50;;;;;;;;;;;;;;;;;;5044170;28;1296;-76
2022/03/18 15:24:19;;;;;;;;;;;;;;;;;;5060432;28;1264;-74
2022/03/18 15:26:45;;;;;;;;;;;;;;;;;;5063928;28;1079;-76
2022/03/18 15:29:12;;;;;;;;;;;;;;;;;;5061733;28;1215;-74
2022/03/18 15:31:37;;;;;;;;;;;;;;;;;;5065033;28;1909;-75
2022/03/18 15:34:03;;;;;;;;;;;;;;;;;;5066257;28;1234;-75
2022/03/18 15:36:28;;;;;;;;;;;;;;;;;;5044711;28;1246;-75
2022/03/18 15:38:54;;;;;;;;;;;;;;;;;;5062942;28;1307;-75
2022/03/18 15:41:20;;;;;;;;;;;;;;;;;;5063690;28;1214;-74
2022/03/18 15:43:47;;;;;;;;;;;;;;;;;;5059838;28;1265;-74
2022/03/18 15:46:13;;;;;;;;;;;;;;;;;;5064464;28;1229;-75
2022/03/18 15:48:39;;;;;;;;;;;;;;;;;;5061166;28;1191;-75
2022/03/18 15:51:06;;;;;;;;;;;;;;;;;;5064632;28;1889;-75
2022/03/18 15:53:31;;;;;;;;;;;;;;;;;;5075976;28;1009;-75
2022/03/18 15:56:01;;;;;;;;;;;;;;;;;;5085319;28;1156;-74
2022/03/18 15:58:37;;;;;;;;;;;;;;;;;;5073334;28;1238;-73
2022/03/18 16:01:06;;;;;;;;;;;;;;;;;;5056658;28;1355;-75
2022/03/18 16:03:31;;;;;;;;;;;;;;;;;;5064228;28;1765;-75
2022/03/18 16:05:57;;;;;;;;;;;;;;;;;;5067576;28;1316;-75
2022/03/18 16:08:22;;;;;;;;;;;;;;;;;;5063102;28;1650;-74
2022/03/18 16:10:49;;;;;;;;;;;;;;;;;;5070723;28;2220;-76
2022/03/18 16:13:15;;;;;;;;;;;;;;;;;;5084340;28;1569;-74
2022/03/18 16:15:40;;;;;;;;;;;;;;;;;;5060850;28;1285;-75
2022/03/18 16:18:06;;;;;;;;;;;;;;;;;;5067776;28;1156;-74
2022/03/18 16:20:31;;;;;;;;;;;;;;;;;;5080400;28;1116;-74
2022/03/18 16:22:58;;;;;;;;;;;;;;;;;;5048952;28;1397;-76
2022/03/18 16:25:26;;;;;;;;;;;;;;;;;;5061533;28;1345;-75
2022/03/18 16:27:52;;;;;;;;;;;;;;;;;;5047072;28;1358;-75
2022/03/18 16:30:18;;;;;;;;;;;;;;;;;;5039176;28;1969;-75
2022/03/18 16:32:44;;;;;;;;;;;;;;;;;;5063292;28;1157;-75
2022/03/18 16:35:10;;;;;;;;;;;;;;;;;;5063695;28;1162;-76
2022/03/18 16:37:37;;;;;;;;;;;;;;;;;;5064346;28;1150;-75
2022/03/18 16:40:03;;;;;;;;;;;;;;;;;;5064193;28;1226;-75
2022/03/18 16:42:28;;;;;;;;;;;;;;;;;;5061780;28;1337;-74
2022/03/18 16:44:58;;;;;;;;;;;;;;;;;;5056849;28;1167;-75
2022/03/18 16:50:08;;;;;;;;;;;;;;;;;;5066741;28;1159;-74
2022/03/18 16:52:33;;;;;;;;;;;;;;;;;;5063191;28;1352;-74
2022/03/18 16:54:58;;;;;;;;;;;;;;;;;;5064238;28;1140;-75
2022/03/18 16:57:24;;;;;;;;;;;;;;;;;;5047863;28;1178;-75
2022/03/18 16:59:49;;;;;;;;;;;;;;;;;;5041243;28;1324;-75
2022/03/18 17:02:15;;;;;;;;;;;;;;;;;;5063633;28;1151;-75
2022/03/18 17:04:40;;;;;;;;;;;;;;;;;;5063800;28;1172;-74
2022/03/18 17:07:06;;;;;;;;;;;;;;;;;;5065122;28;1231;-74
2022/03/18 17:09:32;;;;;;;;;;;;;;;;;;5079190;28;1407;-75
2022/03/18 17:11:58;;;;;;;;;;;;;;;;;;5086273;28;1901;-75
2022/03/18 17:14:23;;;;;;;;;;;;;;;;;;5078390;28;1547;-74
2022/03/18 17:16:49;;;;;;;;;;;;;;;;;;5081865;28;1424;-75
2022/03/18 17:19:16;;;;;;;;;;;;;;;;;;5083482;28;1833;-75
2022/03/18 17:21:42;;;;;;;;;;;;;;;;;;5082539;28;1312;-74
2022/03/18 17:24:08;;;;;;;;;;;;;;;;;;5083348;28;1229;-74
2022/03/18 17:26:34;;;;;;;;;;;;;;;;;;5080479;28;1187;-74
2022/03/18 17:29:00;;;;;;;;;;;;;;;;;;5078581;28;1174;-75
2022/03/18 17:31:31;;;;;;;;;;;;;;;;;;5062157;28;1906;-73